Time;durP1;ratioP1;P1;durP2;ratioP2;P2;SDS_P1;SDS_P2;PMS_P1;PMS_P2;Temp;Humidity;BMP_temperature;BMP_pressure;BME280_temperature;BME280_humidity;BME280_pressure;Samples;Min_cycle;Max_cycle;Signal;HPM_P1;HPM_P2
2023/08/03 00:00:32;;;;;;;7.63;0.52;;;16.60;99.90;;;;;;5073133;28;20032;-51
2023/08/03 00:02:57;;;;;;;3.33;0.73;;;16.70;99.90;;;;;;5072456;28;20076;-53
2023/08/03 00:05:24;;;;;;;3.92;0.90;;;16.70;99.90;;;;;;5072320;28;20152;-51
2023/08/03 00:07:50;;;;;;;5.25;0.50;;;16.60;99.90;;;;;;5072727;28;20410;-51
2023/08/03 00:10:17;;;;;;;6.97;0.93;;;16.60;99.90;;;;;;5072502;28;20050;-52
2023/08/03 00:12:43;;;;;;;2.70;0.68;;;16.60;99.90;;;;;;5072672;28;20071;-50
2023/08/03 00:15:10;;;;;;;5.03;0.40;;;16.60;99.90;;;;;;5072755;28;20482;-50
2023/08/03 00:17:36;;;;;;;5.88;0.77;;;16.60;99.90;;;;;;5072238;28;20052;-53
2023/08/03 00:20:04;;;;;;;4.10;1.20;;;16.50;99.90;;;;;;5072800;28;20476;-52
2023/08/03 00:22:30;;;;;;;3.30;0.65;;;16.50;99.90;;;;;;5067460;28;20086;-51
2023/08/03 00:24:55;;;;;;;;;;;16.50;99.90;;;;;;5072227;28;20489;-50
2023/08/03 00:27:21;;;;;;;6.18;1.08;;;16.40;99.90;;;;;;5072457;28;19923;-51
2023/08/03 00:29:47;;;;;;;4.40;0.45;;;16.40;99.90;;;;;;5072693;28;20064;-51
2023/08/03 00:32:12;;;;;;;1.20;0.70;;;16.40;99.90;;;;;;5072659;28;20072;-54
2023/08/03 00:34:38;;;;;;;7.90;0.70;;;16.40;99.90;;;;;;5072872;28;20046;-50
2023/08/03 00:37:04;;;;;;;2.60;0.50;;;16.30;99.90;;;;;;5072581;28;20040;-50
2023/08/03 00:39:29;;;;;;;4.63;0.73;;;16.30;99.90;;;;;;5072632;28;20468;-50
2023/08/03 00:41:55;;;;;;;3.63;0.55;;;16.30;99.90;;;;;;5072605;28;20516;-53
2023/08/03 00:44:21;;;;;;;7.55;0.77;;;16.30;99.90;;;;;;5072261;28;20413;-50
2023/08/03 00:46:46;;;;;;;4.00;0.50;;;16.30;99.90;;;;;;5072121;28;20033;-54
2023/08/03 00:49:12;;;;;;;4.57;0.82;;;16.20;99.90;;;;;;5071848;28;20075;-51
2023/08/03 00:51:38;;;;;;;1.88;0.63;;;16.20;99.90;;;;;;5072545;28;20048;-51
2023/08/03 00:54:07;;;;;;;1.70;0.30;;;16.20;99.90;;;;;;5072466;28;20037;-50
2023/08/03 00:56:34;;;;;;;1.55;0.38;;;16.30;99.90;;;;;;5072198;28;20029;-50
2023/08/03 00:59:00;;;;;;;6.57;0.80;;;16.20;99.90;;;;;;5072124;28;20042;-54
2023/08/03 01:01:26;;;;;;;;;;;16.20;99.90;;;;;;5071579;28;20041;-54
2023/08/03 01:03:52;;;;;;;7.72;0.50;;;16.20;99.90;;;;;;5072653;28;19967;-51
2023/08/03 01:06:18;;;;;;;4.30;0.40;;;16.20;99.90;;;;;;5071912;28;20405;-51
2023/08/03 01:08:43;;;;;;;2.55;0.30;;;16.20;99.90;;;;;;5071771;28;20086;-50
2023/08/03 01:11:09;;;;;;;4.43;0.50;;;16.20;99.90;;;;;;5071818;28;20052;-53
2023/08/03 01:13:34;;;;;;;3.00;0.40;;;16.20;99.90;;;;;;5072130;28;20122;-50
2023/08/03 01:16:00;;;;;;;2.10;0.60;;;16.20;99.90;;;;;;5071622;28;20147;-51
2023/08/03 01:18:26;;;;;;;3.22;0.32;;;16.20;99.90;;;;;;5071265;28;20036;-50
2023/08/03 01:20:52;;;;;;;8.45;0.70;;;16.20;99.90;;;;;;5071547;28;20059;-51
2023/08/03 01:23:17;;;;;;;5.88;0.80;;;16.20;99.90;;;;;;5071876;28;20036;-52
2023/08/03 01:25:43;;;;;;;3.42;0.40;;;16.20;99.90;;;;;;5071204;28;20394;-50
2023/08/03 01:28:08;;;;;;;3.13;0.50;;;16.20;99.90;;;;;;5070618;28;20036;-50
2023/08/03 01:30:34;;;;;;;1.55;0.30;;;16.20;99.90;;;;;;5071187;28;20036;-51
2023/08/03 01:33:00;;;;;;;4.13;0.75;;;16.10;99.90;;;;;;5070409;28;20044;-51
2023/08/03 01:35:26;;;;;;;1.30;0.40;;;16.20;99.90;;;;;;5070113;28;20127;-53
2023/08/03 01:37:51;;;;;;;1.48;0.45;;;16.10;99.90;;;;;;5070169;28;20033;-51
2023/08/03 01:40:18;;;;;;;3.35;0.50;;;16.20;99.90;;;;;;5070312;28;20536;-50
2023/08/03 01:42:44;;;;;;;;;;;16.20;99.90;;;;;;5070744;28;20036;-52
2023/08/03 01:45:09;;;;;;;4.22;0.50;;;16.10;99.90;;;;;;5069592;28;19922;-51
2023/08/03 01:47:35;;;;;;;1.65;0.47;;;16.10;99.90;;;;;;5070218;28;20032;-51
2023/08/03 01:50:01;;;;;;;4.65;0.60;;;16.10;99.90;;;;;;5071235;28;20029;-52
2023/08/03 01:52:27;;;;;;;1.13;0.40;;;16.10;99.90;;;;;;5071233;28;20040;-51
2023/08/03 01:54:52;;;;;;;3.33;0.40;;;16.20;99.90;;;;;;5071236;28;20411;-52
2023/08/03 01:57:18;;;;;;;3.00;0.40;;;16.20;99.90;;;;;;5070632;28;20040;-51
2023/08/03 01:59:44;;;;;;;1.35;0.60;;;16.20;99.90;;;;;;5065808;28;20041;-53
2023/08/03 02:02:12;;;;;;;3.17;0.82;;;16.10;99.90;;;;;;5071281;28;20529;-50
2023/08/03 02:04:38;;;;;;;2.30;0.47;;;16.10;99.90;;;;;;5070941;28;20532;-51
2023/08/03 02:07:15;;;;;;;1.65;0.63;;;16.20;99.90;;;;;;5070749;28;20043;-54
2023/08/03 02:09:41;;;;;;;1.73;0.52;;;16.10;99.90;;;;;;5063938;28;20447;-50
2023/08/03 02:12:07;;;;;;;6.00;0.70;;;16.10;99.90;;;;;;5069335;28;20040;-54
2023/08/03 02:14:33;;;;;;;;;;;16.20;99.90;;;;;;5069446;28;20058;-52
2023/08/03 02:16:58;;;;;;;1.67;0.70;;;16.20;99.90;;;;;;5069962;28;20006;-51
2023/08/03 02:19:24;;;;;;;3.00;0.95;;;16.20;99.90;;;;;;5070608;28;20102;-54
2023/08/03 02:21:50;;;;;;;3.25;1.45;;;16.10;99.90;;;;;;5070880;28;20040;-50
2023/08/03 02:24:15;;;;;;;3.03;1.10;;;16.10;99.90;;;;;;5070575;28;20048;-51
2023/08/03 02:26:41;;;;;;;1.58;1.48;;;16.20;99.90;;;;;;5069116;28;20028;-51
2023/08/03 02:29:06;;;;;;;2.30;1.80;;;16.20;99.90;;;;;;5069640;28;20127;-52
2023/08/03 02:31:32;;;;;;;2.80;1.25;;;16.20;99.90;;;;;;5062206;28;20490;-53
2023/08/03 02:33:58;;;;;;;6.88;1.58;;;16.20;99.90;;;;;;5070605;28;20047;-50
2023/08/03 02:36:23;;;;;;;2.15;1.38;;;16.20;99.90;;;;;;5070377;28;20047;-51
2023/08/03 02:38:49;;;;;;;3.65;1.70;;;16.20;99.90;;;;;;5070118;28;20090;-51
2023/08/03 02:41:14;;;;;;;3.47;1.58;;;16.20;99.90;;;;;;5070237;28;20497;-53
2023/08/03 02:43:40;;;;;;;5.38;2.00;;;16.20;99.90;;;;;;5069726;28;20060;-50
2023/08/03 02:46:06;;;;;;;4.57;2.28;;;16.20;99.90;;;;;;5070526;28;20092;-51
2023/08/03 02:48:32;;;;;;;5.82;2.03;;;16.30;99.90;;;;;;5069687;28;20102;-53
2023/08/03 02:50:57;;;;;;;3.33;2.03;;;16.30;99.90;;;;;;5070132;28;20032;-50
2023/08/03 02:53:23;;;;;;;3.17;2.45;;;16.30;99.90;;;;;;5070090;28;20074;-51
2023/08/03 02:55:50;;;;;;;6.28;2.30;;;16.30;99.90;;;;;;5070236;28;20074;-54
2023/08/03 02:58:16;;;;;;;7.38;2.60;;;16.30;99.90;;;;;;5069149;28;20120;-51
2023/08/03 03:00:41;;;;;;;5.82;2.63;;;16.30;99.90;;;;;;5069952;28;20116;-51
2023/08/03 03:03:07;;;;;;;6.65;2.25;;;16.40;99.90;;;;;;5070326;28;20062;-52
2023/08/03 03:05:32;;;;;;;7.57;2.33;;;16.40;99.90;;;;;;5070257;28;20028;-54
2023/08/03 03:07:58;;;;;;;5.82;2.78;;;16.40;99.90;;;;;;5069723;28;20068;-50
2023/08/03 03:10:24;;;;;;;5.05;2.65;;;16.40;99.90;;;;;;5069910;28;20406;-50
2023/08/03 03:12:49;;;;;;;3.72;2.30;;;16.40;99.90;;;;;;5069661;28;20107;-50
2023/08/03 03:15:15;;;;;;;4.00;2.22;;;16.40;99.90;;;;;;5069950;28;20417;-54
2023/08/03 03:17:42;;;;;;;5.78;2.85;;;16.40;99.90;;;;;;5069669;28;20029;-50
2023/08/03 03:20:09;;;;;;;8.38;2.97;;;16.40;99.90;;;;;;5069658;28;20037;-57
2023/08/03 03:22:35;;;;;;;4.20;2.70;;;16.40;99.90;;;;;;5061662;28;20037;-51
2023/08/03 03:25:02;;;;;;;7.28;3.05;;;16.40;99.90;;;;;;5069639;28;20093;-50
2023/08/03 03:27:28;;;;;;;6.88;3.35;;;16.40;99.90;;;;;;5069278;28;20048;-51
2023/08/03 03:29:53;;;;;;;5.18;2.83;;;16.50;99.90;;;;;;5069414;28;20055;-51
2023/08/03 03:32:19;;;;;;;8.05;2.03;;;16.50;99.90;;;;;;5069655;28;20520;-53
2023/08/03 03:34:45;;;;;;;10.40;2.75;;;16.50;99.90;;;;;;5069613;28;20032;-51
2023/08/03 03:37:10;;;;;;;5.97;2.55;;;16.50;99.90;;;;;;5069070;28;20033;-52
2023/08/03 03:39:36;;;;;;;5.43;3.00;;;16.50;99.90;;;;;;5064198;28;20032;-50
2023/08/03 03:42:02;;;;;;;5.85;2.90;;;16.50;99.90;;;;;;5068927;28;20068;-51
2023/08/03 03:44:27;;;;;;;12.45;3.83;;;16.50;99.90;;;;;;5069302;28;20085;-54
2023/08/03 03:46:53;;;;;;;8.38;2.83;;;16.50;99.90;;;;;;5068716;28;20486;-51
2023/08/03 03:49:18;;;;;;;11.70;2.78;;;16.50;99.90;;;;;;5069123;28;20032;-50
2023/08/03 03:51:44;;;;;;;6.57;2.50;;;16.50;99.90;;;;;;5068638;28;20037;-51
2023/08/03 03:54:09;;;;;;;14.52;3.50;;;16.50;99.90;;;;;;5068287;28;20062;-52
2023/08/03 03:56:35;;;;;;;8.40;3.25;;;16.50;99.90;;;;;;5068714;28;20037;-52
2023/08/03 03:59:01;;;;;;;7.45;2.92;;;16.50;99.90;;;;;;5069411;28;20036;-50
2023/08/03 04:01:26;;;;;;;6.57;2.80;;;16.50;99.90;;;;;;5069270;28;20047;-51
2023/08/03 04:03:52;;;;;;;9.98;2.70;;;16.50;99.90;;;;;;5069730;28;20044;-51
2023/08/03 04:06:17;;;;;;;5.03;2.55;;;16.50;99.90;;;;;;5069586;28;20039;-55
2023/08/03 04:08:43;;;;;;;11.48;3.22;;;16.50;99.90;;;;;;5069710;28;20048;-51
2023/08/03 04:11:08;;;;;;;9.88;2.88;;;16.50;99.90;;;;;;5069004;28;20382;-51
2023/08/03 04:13:34;;;;;;;6.90;3.15;;;16.50;99.90;;;;;;5063531;28;20111;-52
2023/08/03 04:16:00;;;;;;;6.90;3.17;;;16.50;99.90;;;;;;5069685;28;20052;-53
2023/08/03 04:18:27;;;;;;;7.43;3.13;;;16.50;99.90;;;;;;5068777;28;20045;-50
2023/08/03 04:20:53;;;;;;;8.27;3.03;;;16.50;99.90;;;;;;5069141;28;20501;-51
2023/08/03 04:23:19;;;;;;;9.02;3.00;;;16.50;99.90;;;;;;5069042;28;20073;-50
2023/08/03 04:25:44;;;;;;;13.32;3.08;;;16.50;99.90;;;;;;5068752;28;20067;-50
2023/08/03 04:28:10;;;;;;;6.28;3.05;;;16.50;99.90;;;;;;5068737;28;20032;-54
2023/08/03 04:30:35;;;;;;;4.88;2.13;;;16.50;99.90;;;;;;5069140;28;20035;-52
2023/08/03 04:33:01;;;;;;;10.02;3.08;;;16.50;99.90;;;;;;5069364;28;20473;-53
2023/08/03 04:35:27;;;;;;;8.32;3.00;;;16.50;99.90;;;;;;5069126;28;20036;-51
2023/08/03 04:37:52;;;;;;;9.05;3.80;;;16.50;99.90;;;;;;5071772;28;20035;-51
2023/08/03 04:40:18;;;;;;;12.43;3.35;;;16.50;99.90;;;;;;5065974;28;20056;-51
2023/08/03 04:42:43;;;;;;;8.93;3.35;;;16.50;99.90;;;;;;5072831;28;20064;-53
2023/08/03 04:45:09;;;;;;;8.75;3.38;;;16.50;99.90;;;;;;5072678;28;20032;-51
2023/08/03 04:47:35;;;;;;;9.40;3.80;;;16.60;99.90;;;;;;5072145;28;20458;-51
2023/08/03 04:50:00;;;;;;;13.02;4.05;;;16.50;99.90;;;;;;5072340;28;20028;-53
2023/08/03 04:52:26;;;;;;;11.82;3.63;;;16.50;99.90;;;;;;5072090;28;20039;-53
2023/08/03 04:54:51;;;;;;;11.88;3.47;;;16.50;99.90;;;;;;5071858;28;20070;-51
2023/08/03 04:57:17;;;;;;;9.98;4.28;;;16.60;99.90;;;;;;5072050;28;20036;-52
2023/08/03 04:59:43;;;;;;;7.82;4.25;;;16.60;99.90;;;;;;5070962;28;20037;-53
2023/08/03 05:02:09;;;;;;;10.32;4.40;;;16.60;99.90;;;;;;5072461;28;20055;-50
2023/08/03 05:04:34;;;;;;;8.05;4.30;;;16.70;99.90;;;;;;5072523;28;20059;-51
2023/08/03 05:07:00;;;;;;;12.07;4.68;;;16.70;99.90;;;;;;5071909;28;20505;-57
2023/08/03 05:09:26;;;;;;;9.23;4.10;;;16.70;99.90;;;;;;5071499;28;20131;-51
2023/08/03 05:11:51;;;;;;;11.32;4.32;;;16.80;99.90;;;;;;5072278;28;20048;-51
2023/08/03 05:14:17;;;;;;;9.65;3.97;;;16.80;99.90;;;;;;5070750;28;20497;-53
2023/08/03 05:16:42;;;;;;;11.30;4.38;;;16.80;99.90;;;;;;5071795;28;20033;-51
2023/08/03 05:19:08;;;;;;;9.05;4.43;;;16.80;99.90;;;;;;5071820;28;20036;-51
2023/08/03 05:21:33;;;;;;;9.10;3.65;;;16.80;99.90;;;;;;5071746;28;20036;-52
2023/08/03 05:23:59;;;;;;;7.03;3.75;;;16.90;99.90;;;;;;5071465;28;20039;-52
2023/08/03 05:26:26;;;;;;;9.80;5.03;;;16.90;99.90;;;;;;5070556;28;20068;-55
2023/08/03 05:28:52;;;;;;;10.40;4.53;;;16.90;99.90;;;;;;5071447;28;20145;-50
2023/08/03 05:31:17;;;;;;;10.75;4.47;;;16.90;99.90;;;;;;5071546;28;20516;-53
2023/08/03 05:33:43;;;;;;;4.13;3.67;;;16.90;99.90;;;;;;5071731;28;20501;-51
2023/08/03 05:36:08;;;;;;;9.10;4.93;;;16.90;99.90;;;;;;5071685;28;20039;-52
2023/08/03 05:38:34;;;;;;;9.77;4.90;;;17.00;99.90;;;;;;5070605;28;20033;-50
2023/08/03 05:41:00;;;;;;;9.85;5.22;;;17.00;99.90;;;;;;5071664;28;20623;-51
2023/08/03 05:43:27;;;;;;;;;;;17.00;99.90;;;;;;5066964;28;20072;-51
2023/08/03 05:46:02;;;;;;;6.88;4.45;;;17.10;99.90;;;;;;5071596;28;19920;-51
2023/08/03 05:48:30;;;;;;;10.10;4.90;;;17.20;99.90;;;;;;5070446;28;20101;-51
2023/08/03 05:50:57;;;;;;;16.42;5.32;;;17.20;99.90;;;;;;5066353;28;20037;-53
2023/08/03 05:53:23;;;;;;;14.02;5.25;;;17.20;99.90;;;;;;5068418;28;20040;-50
2023/08/03 05:55:49;;;;;;;13.82;5.82;;;17.10;99.90;;;;;;5071156;28;20032;-51
2023/08/03 05:58:17;;;;;;;13.77;6.20;;;17.10;99.90;;;;;;5070630;28;20484;-51
2023/08/03 06:00:46;;;;;;;13.93;6.78;;;17.10;99.90;;;;;;5071386;28;20124;-50
2023/08/03 06:03:14;;;;;;;11.85;5.88;;;17.10;99.90;;;;;;5070541;28;20036;-51
2023/08/03 06:05:42;;;;;;;11.32;5.80;;;17.10;99.90;;;;;;5070060;28;20082;-53
2023/08/03 06:08:14;;;;;;;12.18;6.20;;;17.20;99.90;;;;;;5063935;28;20045;-50
2023/08/03 06:10:41;;;;;;;12.40;6.55;;;17.10;99.90;;;;;;5062848;28;20040;-56
2023/08/03 06:13:10;;;;;;;17.17;6.57;;;17.10;99.90;;;;;;5062251;28;20128;-54
2023/08/03 06:15:35;;;;;;;13.63;6.28;;;17.20;99.90;;;;;;5066710;28;20536;-55
2023/08/03 06:18:07;;;;;;;15.68;7.28;;;17.20;99.90;;;;;;5061219;28;20040;-52
2023/08/03 06:20:34;;;;;;;9.13;6.60;;;17.20;99.90;;;;;;5061526;28;20040;-54
2023/08/03 06:23:00;;;;;;;15.13;6.78;;;17.30;99.90;;;;;;5070787;28;20108;-50
2023/08/03 06:25:27;;;;;;;17.70;6.22;;;17.30;99.90;;;;;;5070567;28;20478;-51
2023/08/03 06:27:52;;;;;;;9.98;6.00;;;17.30;99.90;;;;;;5070094;28;20137;-51
2023/08/03 06:30:18;;;;;;;19.33;6.68;;;17.40;99.90;;;;;;5070209;28;20033;-53
2023/08/03 06:32:44;;;;;;;12.30;7.00;;;17.40;99.90;;;;;;5070070;28;20036;-51
2023/08/03 06:35:36;;;;;;;9.90;5.93;;;17.50;99.90;;;;;;5066892;28;20040;-51
2023/08/03 06:38:04;;;;;;;13.77;5.60;;;17.60;99.90;;;;;;5067987;28;20098;-54
2023/08/03 06:40:29;;;;;;;13.80;6.20;;;17.60;99.90;;;;;;5063518;28;20133;-50
2023/08/03 06:42:55;;;;;;;9.15;5.95;;;17.70;99.90;;;;;;5070176;28;20468;-51
2023/08/03 06:45:21;;;;;;;14.73;6.82;;;17.70;99.90;;;;;;5065388;28;20048;-52
2023/08/03 06:47:48;;;;;;;11.20;6.95;;;17.70;99.90;;;;;;5058952;28;20498;-54
2023/08/03 06:50:14;;;;;;;13.10;6.45;;;17.80;99.90;;;;;;5055449;28;20090;-51
2023/08/03 06:52:39;;;;;;;18.27;7.88;;;17.80;99.90;;;;;;5050199;28;20048;-51
2023/08/03 06:55:05;;;;;;;12.40;7.00;;;17.80;99.90;;;;;;5065992;28;20029;-51
2023/08/03 06:57:31;;;;;;;12.98;6.70;;;17.80;99.90;;;;;;5063409;28;20039;-53
2023/08/03 06:59:57;;;;;;;9.82;7.07;;;17.90;99.90;;;;;;5063514;28;20400;-51
2023/08/03 07:02:23;;;;;;;;;;;17.90;99.90;;;;;;5070875;28;20082;-53
2023/08/03 07:04:48;;;;;;;15.98;7.35;;;17.90;99.90;;;;;;5066767;28;19924;-50
2023/08/03 07:07:14;;;;;;;16.05;7.13;;;18.00;99.90;;;;;;5064600;28;20118;-51
2023/08/03 07:09:40;;;;;;;16.92;8.05;;;18.10;99.90;;;;;;5065360;28;20055;-57
2023/08/03 07:12:09;;;;;;;15.30;8.05;;;18.10;99.90;;;;;;5066721;28;20044;-54
2023/08/03 07:14:35;;;;;;;14.23;6.95;;;18.20;99.90;;;;;;5066391;28;20040;-50
2023/08/03 07:17:00;;;;;;;17.02;5.93;;;18.20;99.90;;;;;;5067628;28;20040;-56
2023/08/03 07:19:26;;;;;;;15.27;7.15;;;18.20;99.90;;;;;;5068047;28;20045;-53
2023/08/03 07:21:51;;;;;;;11.43;5.35;;;18.20;99.90;;;;;;5064878;28;20107;-51
2023/08/03 07:24:17;;;;;;;12.40;6.72;;;18.30;99.90;;;;;;5062398;28;20387;-53
2023/08/03 07:26:43;;;;;;;10.35;5.00;;;18.30;99.90;;;;;;5067801;28;20036;-55
2023/08/03 07:29:08;;;;;;;10.23;4.95;;;18.20;99.90;;;;;;5056911;28;20067;-51
2023/08/03 07:31:34;;;;;;;10.85;4.57;;;18.20;99.90;;;;;;5061352;28;20390;-51
2023/08/03 07:33:59;;;;;;;7.57;4.47;;;18.30;99.90;;;;;;5061385;28;20056;-51
2023/08/03 07:36:25;;;;;;;8.00;4.07;;;18.30;99.90;;;;;;5066539;28;20105;-54
2023/08/03 07:38:52;;;;;;;7.63;5.00;;;18.40;99.90;;;;;;5060669;28;20043;-50
2023/08/03 07:41:18;;;;;;;9.80;4.03;;;18.50;99.90;;;;;;5062669;28;20032;-52
2023/08/03 07:43:43;;;;;;;6.85;4.65;;;18.60;99.90;;;;;;5066855;28;20037;-52
2023/08/03 07:46:09;;;;;;;15.57;4.47;;;18.60;99.90;;;;;;5069892;28;20460;-51
2023/08/03 07:48:35;;;;;;;11.63;6.20;;;18.70;99.90;;;;;;5069404;28;20044;-51
2023/08/03 07:51:12;;;;;;;10.73;4.72;;;18.80;99.90;;;;;;5069725;28;20040;-51
2023/08/03 07:53:38;;;;;;;7.90;4.18;;;18.80;99.90;;;;;;5068751;28;20036;-52
2023/08/03 07:56:04;;;;;;;3.58;3.03;;;18.80;99.90;;;;;;5068129;28;20151;-53
2023/08/03 07:58:29;;;;;;;7.13;2.75;;;18.80;99.90;;;;;;5069337;28;20486;-50
2023/08/03 08:01:07;;;;;;;15.90;3.38;;;18.80;99.90;;;;;;5069652;28;20044;-51
2023/08/03 08:03:35;;;;;;;7.80;2.75;;;18.80;99.90;;;;;;5069773;28;20040;-51
2023/08/03 08:06:07;;;;;;;4.80;2.90;;;18.80;99.90;;;;;;5066633;28;20079;-51
2023/08/03 08:08:33;;;;;;;7.90;2.33;;;19.00;99.90;;;;;;5068063;28;20060;-51
2023/08/03 08:10:59;;;;;;;8.43;2.53;;;19.10;99.90;;;;;;5070111;28;20441;-53
2023/08/03 08:13:24;;;;;;;9.07;1.83;;;19.30;99.90;;;;;;5072853;28;20115;-51
2023/08/03 08:15:50;;;;;;;;;;;19.50;99.90;;;;;;5073543;28;20040;-51
2023/08/03 08:18:15;;;;;;;5.85;1.80;;;19.60;99.90;;;;;;5072651;28;19974;-51
2023/08/03 08:20:42;;;;;;;;;;;19.80;99.90;;;;;;5073475;28;20107;-53
2023/08/03 08:23:07;;;;;;;14.00;1.65;;;19.80;99.90;;;;;;5072895;28;19916;-53
2023/08/03 08:25:34;;;;;;;5.15;1.90;;;19.90;99.90;;;;;;5073580;28;20223;-51
2023/08/03 08:27:59;;;;;;;6.97;2.35;;;20.00;99.90;;;;;;5072936;28;20044;-53
2023/08/03 08:30:25;;;;;;;5.75;1.17;;;20.10;99.90;;;;;;5072702;28;20475;-50
2023/08/03 08:32:52;;;;;;;;;;;20.10;99.90;;;;;;5073416;28;20060;-51
2023/08/03 08:35:17;;;;;;;7.95;1.67;;;20.10;99.90;;;;;;5073438;28;19923;-51
2023/08/03 08:37:43;;;;;;;;;;;20.00;99.90;;;;;;5073016;28;20037;-51
2023/08/03 08:40:12;;;;;;;4.32;0.45;;;19.80;99.90;;;;;;5073149;28;20385;-53
2023/08/03 08:42:38;;;;;;;2.72;0.73;;;19.70;99.90;;;;;;5073088;28;20075;-50
2023/08/03 08:45:07;;;;;;;8.93;1.08;;;19.60;99.90;;;;;;5073051;28;20076;-51
2023/08/03 08:47:33;;;;;;;5.47;1.35;;;19.60;99.90;;;;;;5072663;28;20437;-51
2023/08/03 08:49:58;;;;;;;6.03;1.27;;;19.70;99.90;;;;;;5072768;28;20075;-53
2023/08/03 08:52:28;;;;;;;4.50;1.38;;;19.90;99.90;;;;;;5072452;28;20045;-51
2023/08/03 08:55:13;;;;;;;4.90;1.20;;;20.10;99.90;;;;;;5072930;28;20401;-51
2023/08/03 08:57:39;;;;;;;4.13;1.13;;;20.30;99.90;;;;;;5072709;28;20041;-51
2023/08/03 09:00:06;;;;;;;3.05;0.55;;;20.50;99.90;;;;;;5071085;28;20461;-56
2023/08/03 09:02:32;;;;;;;3.83;0.50;;;20.60;99.90;;;;;;5069250;28;20035;-54
2023/08/03 09:05:07;;;;;;;;;;;20.70;99.90;;;;;;5067874;28;20577;-51
2023/08/03 09:07:32;;;;;;;4.20;0.38;;;20.80;99.90;;;;;;5069909;28;19916;-53
2023/08/03 09:10:00;;;;;;;;;;;20.80;99.90;;;;;;5069984;28;20127;-51
2023/08/03 09:12:26;;;;;;;1.30;0.40;;;20.90;99.90;;;;;;5070947;28;19925;-51
2023/08/03 09:14:52;;;;;;;;;;;21.10;99.90;;;;;;5072725;28;20402;-51
2023/08/03 09:17:19;;;;;;;4.32;0.38;;;21.10;99.90;;;;;;5071218;28;19917;-51
2023/08/03 09:19:47;;;;;;;2.53;0.32;;;21.20;99.90;;;;;;5064011;28;20043;-54
2023/08/03 09:22:13;;;;;;;1.42;0.30;;;21.20;99.90;;;;;;5063615;28;20037;-54
2023/08/03 09:24:38;;;;;;;;;;;21.30;99.90;;;;;;5071385;28;20044;-53
2023/08/03 09:27:04;;;;;;;3.75;0.20;;;21.40;99.90;;;;;;5071944;28;19943;-52
2023/08/03 09:29:31;;;;;;;;;;;21.50;99.90;;;;;;5072597;28;20052;-51
2023/08/03 09:32:01;;;;;;;3.75;0.55;;;21.60;99.90;;;;;;5071710;28;19974;-52
2023/08/03 09:34:42;;;;;;;4.10;0.20;;;21.70;99.90;;;;;;5072308;28;20083;-52
2023/08/03 09:37:08;;;;;;;3.30;0.20;;;21.70;99.90;;;;;;5071515;28;20045;-54
2023/08/03 09:39:36;;;;;;;5.28;0.60;;;21.70;99.90;;;;;;5071920;28;20131;-51
2023/08/03 09:42:03;;;;;;;4.70;0.28;;;21.70;99.90;;;;;;5071727;28;20066;-52
2023/08/03 09:44:30;;;;;;;4.28;0.30;;;21.80;99.90;;;;;;5070584;28;20045;-51
2023/08/03 09:46:57;;;;;;;1.25;0.20;;;22.00;99.90;;;;;;5071411;28;20044;-54
2023/08/03 09:49:24;;;;;;;2.05;0.20;;;22.10;99.90;;;;;;5069151;28;20036;-52
2023/08/03 09:51:55;;;;;;;4.45;0.38;;;22.20;99.90;;;;;;5071710;28;20068;-54
2023/08/03 09:54:52;;;;;;;2.03;0.40;;;22.30;99.90;;;;;;5071700;28;20318;-52
2023/08/03 09:57:23;;;;;;;1.48;0.45;;;22.30;99.90;;;;;;5060206;28;20036;-52
2023/08/03 09:59:54;;;;;;;3.00;0.30;;;22.30;99.90;;;;;;5060498;28;20032;-51
2023/08/03 10:02:23;;;;;;;3.08;0.28;;;22.40;99.90;;;;;;5061708;28;20072;-52
2023/08/03 10:04:53;;;;;;;1.55;0.30;;;22.40;99.90;;;;;;5062113;28;20067;-52
2023/08/03 10:07:22;;;;;;;1.73;0.20;;;22.40;99.90;;;;;;5054657;28;20064;-52
2023/08/03 10:09:53;;;;;;;3.80;0.13;;;22.60;99.90;;;;;;5060881;28;21954;-52
2023/08/03 10:12:24;;;;;;;0.73;0.13;;;22.70;99.90;;;;;;5059090;28;20116;-52
2023/08/03 10:14:52;;;;;;;1.55;0.30;;;22.80;99.90;;;;;;5054011;28;20052;-53
2023/08/03 10:17:18;;;;;;;3.55;0.40;;;22.90;99.90;;;;;;5064560;28;20040;-53
2023/08/03 10:19:45;;;;;;;0.73;0.20;;;23.00;99.90;;;;;;5067537;28;20040;-55
2023/08/03 10:22:11;;;;;;;4.22;0.30;;;22.90;99.90;;;;;;5067960;28;20071;-51
2023/08/03 10:24:36;;;;;;;;;;;22.90;99.90;;;;;;5061329;28;20036;-56
2023/08/03 10:27:19;;;;;;;1.63;0.20;;;22.80;99.90;;;;;;5067858;28;19958;-54
2023/08/03 10:29:51;;;;;;;2.10;0.60;;;22.90;99.90;;;;;;5067238;28;20370;-52
2023/08/03 10:32:22;;;;;;;1.67;0.10;;;23.10;99.90;;;;;;5069213;28;20424;-52
2023/08/03 10:34:51;;;;;;;4.22;0.20;;;23.10;99.90;;;;;;5063617;28;20107;-53
2023/08/03 10:37:16;;;;;;;1.65;0.20;;;23.10;99.90;;;;;;5065033;28;20032;-52
2023/08/03 10:39:47;;;;;;;;;;;23.10;99.90;;;;;;5071181;28;20097;-54
2023/08/03 10:42:32;;;;;;;3.15;0.20;;;23.00;99.90;;;;;;5063003;28;19916;-52
2023/08/03 10:45:25;;;;;;;2.35;0.20;;;22.80;99.90;;;;;;5060046;28;20135;-54
2023/08/03 10:47:52;;;;;;;2.22;0.20;;;22.80;99.90;;;;;;5062887;28;20454;-52
2023/08/03 10:50:17;;;;;;;3.70;0.20;;;22.90;99.90;;;;;;5064131;28;20047;-54
2023/08/03 10:52:43;;;;;;;;;;;22.80;99.90;;;;;;5061658;28;20116;-52
2023/08/03 10:55:26;;;;;;;1.30;0.20;;;22.80;99.90;;;;;;5067814;28;19982;-53
2023/08/03 10:57:53;;;;;;;4.38;0.20;;;22.80;99.90;;;;;;5070182;28;20099;-52
2023/08/03 11:00:18;;;;;;;1.48;0.25;;;22.70;99.90;;;;;;5070401;28;20045;-53
2023/08/03 11:02:44;;;;;;;;;;;22.70;99.90;;;;;;5071282;28;20498;-52
2023/08/03 11:05:13;;;;;;;5.70;0.28;;;22.60;99.90;;;;;;5070514;28;19917;-52
2023/08/03 11:07:43;;;;;;;1.35;0.30;;;22.60;99.90;;;;;;5069631;28;20082;-52
2023/08/03 11:10:11;;;;;;;3.85;0.45;;;22.60;99.90;;;;;;5069923;28;20040;-52
2023/08/03 11:12:38;;;;;;;5.75;0.40;;;22.60;99.90;;;;;;5069431;28;20413;-52
2023/08/03 11:15:05;;;;;;;1.98;0.40;;;22.70;99.90;;;;;;5067317;28;20049;-52
2023/08/03 11:17:33;;;;;;;2.90;0.30;;;22.70;99.90;;;;;;5062740;28;20032;-55
2023/08/03 11:20:00;;;;;;;2.65;0.30;;;22.80;99.90;;;;;;5063729;28;20067;-52
2023/08/03 11:22:27;;;;;;;2.05;0.30;;;22.90;99.90;;;;;;5068171;28;20044;-51
2023/08/03 11:24:57;;;;;;;4.95;0.52;;;23.00;99.90;;;;;;5061633;28;20123;-54
2023/08/03 11:27:23;;;;;;;3.00;0.25;;;23.00;99.90;;;;;;5069952;28;20048;-53
2023/08/03 11:29:51;;;;;;;3.70;0.35;;;23.00;99.90;;;;;;5069922;28;20036;-54
2023/08/03 11:32:43;;;;;;;2.78;0.30;;;23.00;99.90;;;;;;5066599;28;20036;-52
2023/08/03 11:35:10;;;;;;;1.40;0.22;;;23.00;99.90;;;;;;5065060;28;20040;-55
2023/08/03 11:37:37;;;;;;;3.88;0.30;;;23.00;99.90;;;;;;5059483;28;20075;-54
2023/08/03 11:40:05;;;;;;;2.72;0.28;;;23.10;99.90;;;;;;5061572;28;20459;-52
2023/08/03 11:42:32;;;;;;;3.88;0.30;;;23.10;99.90;;;;;;5068385;28;20048;-53
2023/08/03 11:44:57;;;;;;;2.10;0.30;;;23.20;99.90;;;;;;5069774;28;20401;-53
2023/08/03 11:47:23;;;;;;;1.73;0.30;;;23.10;99.90;;;;;;5065831;28;20041;-52
2023/08/03 11:49:52;;;;;;;3.25;0.40;;;23.00;99.90;;;;;;5073488;28;20311;-52
2023/08/03 11:52:21;;;;;;;1.85;0.30;;;23.00;99.90;;;;;;5067959;28;20037;-52
2023/08/03 11:54:48;;;;;;;2.47;0.57;;;23.00;99.90;;;;;;5071655;28;20039;-52
2023/08/03 12:00:01;;;;;;;4.72;0.40;;;22.90;99.90;;;;;;5070390;28;20044;-52
2023/08/03 12:02:43;;;;;;;2.65;0.30;;;22.80;99.90;;;;;;5073264;28;20068;-52
2023/08/03 12:05:10;;;;;;;3.15;0.30;;;22.90;99.90;;;;;;5070805;28;20043;-52
2023/08/03 12:07:36;;;;;;;2.97;0.30;;;22.90;99.90;;;;;;5073066;28;20044;-55
2023/08/03 12:10:09;;;;;;;;;;;22.90;99.90;;;;;;5072275;28;20070;-52
2023/08/03 12:12:35;;;;;;;4.40;0.30;;;22.70;99.90;;;;;;5073261;28;20039;-52
2023/08/03 12:15:00;;;;;;;;;;;22.60;99.90;;;;;;5073615;28;20111;-51
2023/08/03 12:17:26;;;;;;;3.40;0.40;;;22.40;99.90;;;;;;5072457;28;19916;-54
2023/08/03 12:19:52;;;;;;;2.60;0.30;;;22.30;99.90;;;;;;5072320;28;20064;-55
2023/08/03 12:22:17;;;;;;;1.90;0.20;;;22.20;99.90;;;;;;5067917;28;20036;-51
2023/08/03 12:24:43;;;;;;;3.50;0.40;;;22.20;99.90;;;;;;5055294;28;20052;-54
2023/08/03 12:27:08;;;;;;;;;;;22.10;99.90;;;;;;5060377;28;20099;-53
2023/08/03 12:29:34;;;;;;;14.15;1.52;;;22.20;99.90;;;;;;5071074;28;19920;-54
2023/08/03 12:31:59;;;;;;;4.10;0.57;;;22.30;99.90;;;;;;5059445;28;20037;-51
2023/08/03 12:34:26;;;;;;;3.45;0.63;;;22.30;99.90;;;;;;5064714;28;20045;-53
2023/08/03 12:36:52;;;;;;;6.85;1.00;;;22.30;99.90;;;;;;5063441;28;20063;-52
2023/08/03 12:39:17;;;;;;;;;;;22.30;99.90;;;;;;5072933;28;20041;-53
2023/08/03 12:41:44;;;;;;;2.88;0.45;;;22.30;99.90;;;;;;5061553;28;20301;-54
2023/08/03 12:44:10;;;;;;;4.55;0.63;;;22.30;99.90;;;;;;5066142;28;20033;-51
2023/08/03 12:46:36;;;;;;;;;;;22.30;99.90;;;;;;5065986;28;20039;-52
2023/08/03 12:49:01;;;;;;;5.45;0.50;;;22.40;99.90;;;;;;5071288;28;19991;-51
2023/08/03 12:51:27;;;;;;;;;;;22.40;99.90;;;;;;5072503;28;20033;-51